sensor_id;sensor_type;location;lat;lon;timestamp;P1;durP1;ratioP1;P2;durP2;ratioP2
75823;SDS011;64457;51.976;9.834;2023-08-08T00:01:46;9.83;;;3.03;;
75823;SDS011;64457;51.976;9.834;2023-08-08T00:04:13;15.67;;;3.00;;
75823;SDS011;64457;51.976;9.834;2023-08-08T00:06:41;8.80;;;2.70;;
75823;SDS011;64457;51.976;9.834;2023-08-08T00:09:10;7.90;;;2.40;;
75823;SDS011;64457;51.976;9.834;2023-08-08T00:11:39;8.93;;;2.80;;
75823;SDS011;64457;51.976;9.834;2023-08-08T00:14:07;9.73;;;2.87;;
75823;SDS011;64457;51.976;9.834;2023-08-08T00:16:35;16.10;;;2.90;;
75823;SDS011;64457;51.976;9.834;2023-08-08T00:19:05;7.73;;;2.87;;
75823;SDS011;64457;51.976;9.834;2023-08-08T00:21:35;7.10;;;2.63;;
75823;SDS011;64457;51.976;9.834;2023-08-08T00:24:03;7.07;;;2.90;;
75823;SDS011;64457;51.976;9.834;2023-08-08T00:26:32;8.83;;;3.20;;
75823;SDS011;64457;51.976;9.834;2023-08-08T00:29:00;10.77;;;3.60;;
75823;SDS011;64457;51.976;9.834;2023-08-08T00:31:28;10.47;;;3.20;;
75823;SDS011;64457;51.976;9.834;2023-08-08T00:33:59;10.27;;;2.53;;
75823;SDS011;64457;51.976;9.834;2023-08-08T00:36:30;10.50;;;3.17;;
75823;SDS011;64457;51.976;9.834;2023-08-08T00:38:59;9.60;;;2.57;;
75823;SDS011;64457;51.976;9.834;2023-08-08T00:41:28;8.50;;;3.40;;
75823;SDS011;64457;51.976;9.834;2023-08-08T00:43:58;9.20;;;2.80;;
75823;SDS011;64457;51.976;9.834;2023-08-08T00:46:27;6.30;;;2.43;;
75823;SDS011;64457;51.976;9.834;2023-08-08T00:48:55;10.03;;;2.80;;
75823;SDS011;64457;51.976;9.834;2023-08-08T00:51:23;7.93;;;2.77;;
75823;SDS011;64457;51.976;9.834;2023-08-08T00:53:54;15.00;;;3.17;;
75823;SDS011;64457;51.976;9.834;2023-08-08T00:56:22;8.20;;;2.97;;
75823;SDS011;64457;51.976;9.834;2023-08-08T00:58:50;7.00;;;2.53;;
75823;SDS011;64457;51.976;9.834;2023-08-08T01:01:18;7.47;;;2.83;;
75823;SDS011;64457;51.976;9.834;2023-08-08T01:03:46;9.43;;;3.03;;
75823;SDS011;64457;51.976;9.834;2023-08-08T01:06:17;8.10;;;2.90;;
75823;SDS011;64457;51.976;9.834;2023-08-08T01:08:51;11.23;;;3.00;;
75823;SDS011;64457;51.976;9.834;2023-08-08T01:11:25;7.30;;;2.77;;
75823;SDS011;64457;51.976;9.834;2023-08-08T01:13:54;11.43;;;2.60;;
75823;SDS011;64457;51.976;9.834;2023-08-08T01:16:23;7.50;;;2.30;;
75823;SDS011;64457;51.976;9.834;2023-08-08T01:18:53;7.30;;;2.43;;
75823;SDS011;64457;51.976;9.834;2023-08-08T01:21:20;9.57;;;3.10;;
75823;SDS011;64457;51.976;9.834;2023-08-08T01:23:52;7.50;;;2.57;;
75823;SDS011;64457;51.976;9.834;2023-08-08T01:26:29;6.70;;;2.53;;
75823;SDS011;64457;51.976;9.834;2023-08-08T01:28:58;8.97;;;2.87;;
75823;SDS011;64457;51.976;9.834;2023-08-08T01:31:26;8.23;;;2.77;;
75823;SDS011;64457;51.976;9.834;2023-08-08T01:33:53;6.80;;;2.50;;
75823;SDS011;64457;51.976;9.834;2023-08-08T01:36:22;7.60;;;2.87;;
75823;SDS011;64457;51.976;9.834;2023-08-08T01:38:59;10.90;;;3.20;;
75823;SDS011;64457;51.976;9.834;2023-08-08T01:41:32;9.50;;;3.00;;
75823;SDS011;64457;51.976;9.834;2023-08-08T01:44:00;8.90;;;2.90;;
75823;SDS011;64457;51.976;9.834;2023-08-08T01:46:29;11.30;;;3.40;;
75823;SDS011;64457;51.976;9.834;2023-08-08T01:48:58;11.83;;;3.67;;
75823;SDS011;64457;51.976;9.834;2023-08-08T01:51:26;11.07;;;3.50;;
75823;SDS011;64457;51.976;9.834;2023-08-08T01:53:54;11.97;;;3.80;;
75823;SDS011;64457;51.976;9.834;2023-08-08T01:56:21;8.80;;;3.60;;
75823;SDS011;64457;51.976;9.834;2023-08-08T01:58:50;9.67;;;3.60;;
75823;SDS011;64457;51.976;9.834;2023-08-08T02:01:18;13.43;;;3.63;;
75823;SDS011;64457;51.976;9.834;2023-08-08T02:03:46;11.47;;;4.03;;
75823;SDS011;64457;51.976;9.834;2023-08-08T02:06:13;8.17;;;3.50;;
75823;SDS011;64457;51.976;9.834;2023-08-08T02:08:41;10.60;;;4.20;;
75823;SDS011;64457;51.976;9.834;2023-08-08T02:11:09;9.17;;;3.90;;
75823;SDS011;64457;51.976;9.834;2023-08-08T02:13:37;11.10;;;3.97;;
75823;SDS011;64457;51.976;9.834;2023-08-08T02:16:07;10.13;;;3.80;;
75823;SDS011;64457;51.976;9.834;2023-08-08T02:18:35;9.10;;;4.10;;
75823;SDS011;64457;51.976;9.834;2023-08-08T02:21:05;8.60;;;3.80;;
75823;SDS011;64457;51.976;9.834;2023-08-08T02:23:33;11.83;;;4.60;;
75823;SDS011;64457;51.976;9.834;2023-08-08T02:26:01;10.90;;;4.17;;
75823;SDS011;64457;51.976;9.834;2023-08-08T02:28:29;9.20;;;3.80;;
75823;SDS011;64457;51.976;9.834;2023-08-08T02:30:56;9.97;;;4.60;;
75823;SDS011;64457;51.976;9.834;2023-08-08T02:33:25;12.90;;;4.80;;
75823;SDS011;64457;51.976;9.834;2023-08-08T02:35:54;10.63;;;4.10;;
75823;SDS011;64457;51.976;9.834;2023-08-08T02:38:21;10.03;;;4.33;;
75823;SDS011;64457;51.976;9.834;2023-08-08T02:40:49;10.30;;;4.43;;
75823;SDS011;64457;51.976;9.834;2023-08-08T02:43:18;9.90;;;4.00;;
75823;SDS011;64457;51.976;9.834;2023-08-08T02:45:45;10.07;;;3.63;;
75823;SDS011;64457;51.976;9.834;2023-08-08T02:48:13;9.50;;;3.50;;
75823;SDS011;64457;51.976;9.834;2023-08-08T02:50:42;12.30;;;3.80;;
75823;SDS011;64457;51.976;9.834;2023-08-08T02:53:11;13.90;;;3.90;;
75823;SDS011;64457;51.976;9.834;2023-08-08T02:55:39;10.50;;;3.63;;
75823;SDS011;64457;51.976;9.834;2023-08-08T02:58:06;7.87;;;3.60;;
75823;SDS011;64457;51.976;9.834;2023-08-08T03:00:34;10.97;;;3.80;;
75823;SDS011;64457;51.976;9.834;2023-08-08T03:03:02;10.57;;;3.50;;
75823;SDS011;64457;51.976;9.834;2023-08-08T03:05:30;10.80;;;3.60;;
75823;SDS011;64457;51.976;9.834;2023-08-08T03:07:59;8.07;;;3.40;;
75823;SDS011;64457;51.976;9.834;2023-08-08T03:10:27;9.10;;;4.07;;
75823;SDS011;64457;51.976;9.834;2023-08-08T03:12:55;7.80;;;3.40;;
75823;SDS011;64457;51.976;9.834;2023-08-08T03:15:23;10.17;;;3.33;;
75823;SDS011;64457;51.976;9.834;2023-08-08T03:17:51;7.30;;;2.93;;
75823;SDS011;64457;51.976;9.834;2023-08-08T03:20:18;8.27;;;3.00;;
75823;SDS011;64457;51.976;9.834;2023-08-08T03:22:47;7.47;;;2.97;;
75823;SDS011;64457;51.976;9.834;2023-08-08T03:25:16;7.43;;;2.40;;
75823;SDS011;64457;51.976;9.834;2023-08-08T03:27:44;8.33;;;2.93;;
75823;SDS011;64457;51.976;9.834;2023-08-08T03:30:12;7.20;;;2.90;;
75823;SDS011;64457;51.976;9.834;2023-08-08T03:32:42;7.90;;;2.93;;
75823;SDS011;64457;51.976;9.834;2023-08-08T03:35:09;8.53;;;3.00;;
75823;SDS011;64457;51.976;9.834;2023-08-08T03:37:40;9.03;;;3.13;;
75823;SDS011;64457;51.976;9.834;2023-08-08T03:40:08;7.60;;;2.70;;
75823;SDS011;64457;51.976;9.834;2023-08-08T03:42:39;6.90;;;2.30;;
75823;SDS011;64457;51.976;9.834;2023-08-08T03:45:07;9.57;;;2.67;;
75823;SDS011;64457;51.976;9.834;2023-08-08T03:47:36;6.53;;;2.50;;
75823;SDS011;64457;51.976;9.834;2023-08-08T03:50:08;5.93;;;2.30;;
75823;SDS011;64457;51.976;9.834;2023-08-08T03:52:36;6.50;;;2.43;;
75823;SDS011;64457;51.976;9.834;2023-08-08T03:55:05;8.33;;;2.80;;
75823;SDS011;64457;51.976;9.834;2023-08-08T03:57:33;8.03;;;3.47;;
75823;SDS011;64457;51.976;9.834;2023-08-08T04:00:05;6.43;;;2.47;;
75823;SDS011;64457;51.976;9.834;2023-08-08T04:02:34;8.73;;;2.60;;
75823;SDS011;64457;51.976;9.834;2023-08-08T04:05:01;6.60;;;2.50;;
75823;SDS011;64457;51.976;9.834;2023-08-08T04:07:29;6.00;;;2.30;;
75823;SDS011;64457;51.976;9.834;2023-08-08T04:09:57;7.50;;;2.20;;
75823;SDS011;64457;51.976;9.834;2023-08-08T04:12:24;8.20;;;2.27;;
75823;SDS011;64457;51.976;9.834;2023-08-08T04:14:52;7.50;;;2.67;;
75823;SDS011;64457;51.976;9.834;2023-08-08T04:17:23;6.23;;;2.23;;
75823;SDS011;64457;51.976;9.834;2023-08-08T04:19:51;7.87;;;2.40;;
75823;SDS011;64457;51.976;9.834;2023-08-08T04:22:20;6.80;;;2.30;;
75823;SDS011;64457;51.976;9.834;2023-08-08T04:24:47;8.23;;;2.57;;
75823;SDS011;64457;51.976;9.834;2023-08-08T04:27:16;7.90;;;2.60;;
75823;SDS011;64457;51.976;9.834;2023-08-08T04:29:43;9.93;;;2.43;;
75823;SDS011;64457;51.976;9.834;2023-08-08T04:32:11;6.77;;;2.43;;
75823;SDS011;64457;51.976;9.834;2023-08-08T04:34:41;9.00;;;2.57;;
75823;SDS011;64457;51.976;9.834;2023-08-08T04:37:09;5.57;;;2.20;;
75823;SDS011;64457;51.976;9.834;2023-08-08T04:39:37;6.03;;;2.00;;
75823;SDS011;64457;51.976;9.834;2023-08-08T04:42:04;6.20;;;2.17;;
75823;SDS011;64457;51.976;9.834;2023-08-08T04:44:32;11.87;;;2.57;;
75823;SDS011;64457;51.976;9.834;2023-08-08T04:47:00;7.93;;;2.20;;
75823;SDS011;64457;51.976;9.834;2023-08-08T04:49:27;7.43;;;3.00;;
75823;SDS011;64457;51.976;9.834;2023-08-08T04:51:56;8.57;;;2.97;;
75823;SDS011;64457;51.976;9.834;2023-08-08T04:54:24;7.40;;;3.33;;
75823;SDS011;64457;51.976;9.834;2023-08-08T04:56:51;11.30;;;3.67;;
75823;SDS011;64457;51.976;9.834;2023-08-08T04:59:19;10.93;;;4.00;;
75823;SDS011;64457;51.976;9.834;2023-08-08T05:01:46;11.87;;;4.17;;
75823;SDS011;64457;51.976;9.834;2023-08-08T05:04:14;9.97;;;3.80;;
75823;SDS011;64457;51.976;9.834;2023-08-08T05:06:41;9.53;;;3.40;;
75823;SDS011;64457;51.976;9.834;2023-08-08T05:09:14;11.70;;;3.53;;
75823;SDS011;64457;51.976;9.834;2023-08-08T05:11:41;10.97;;;4.77;;
75823;SDS011;64457;51.976;9.834;2023-08-08T05:14:09;12.53;;;3.93;;
75823;SDS011;64457;51.976;9.834;2023-08-08T05:16:38;9.00;;;3.90;;
75823;SDS011;64457;51.976;9.834;2023-08-08T05:19:06;10.57;;;3.60;;
75823;SDS011;64457;51.976;9.834;2023-08-08T05:21:36;10.20;;;3.33;;
75823;SDS011;64457;51.976;9.834;2023-08-08T05:24:04;10.83;;;3.80;;
75823;SDS011;64457;51.976;9.834;2023-08-08T05:26:35;7.90;;;3.67;;
75823;SDS011;64457;51.976;9.834;2023-08-08T05:29:03;15.00;;;3.37;;
75823;SDS011;64457;51.976;9.834;2023-08-08T05:31:32;9.00;;;3.90;;
75823;SDS011;64457;51.976;9.834;2023-08-08T05:34:02;8.63;;;3.77;;
75823;SDS011;64457;51.976;9.834;2023-08-08T05:36:30;7.43;;;3.77;;
75823;SDS011;64457;51.976;9.834;2023-08-08T05:39:01;10.20;;;4.00;;
75823;SDS011;64457;51.976;9.834;2023-08-08T05:41:31;7.20;;;3.50;;
75823;SDS011;64457;51.976;9.834;2023-08-08T05:44:01;11.63;;;3.93;;
75823;SDS011;64457;51.976;9.834;2023-08-08T05:46:29;9.90;;;3.70;;
75823;SDS011;64457;51.976;9.834;2023-08-08T05:48:57;12.90;;;4.20;;
75823;SDS011;64457;51.976;9.834;2023-08-08T05:51:26;8.43;;;3.57;;
75823;SDS011;64457;51.976;9.834;2023-08-08T05:53:55;9.40;;;4.23;;
75823;SDS011;64457;51.976;9.834;2023-08-08T05:56:24;10.40;;;4.17;;
75823;SDS011;64457;51.976;9.834;2023-08-08T05:58:51;8.60;;;4.07;;
75823;SDS011;64457;51.976;9.834;2023-08-08T06:01:23;9.10;;;3.70;;
75823;SDS011;64457;51.976;9.834;2023-08-08T06:03:53;8.73;;;3.63;;
75823;SDS011;64457;51.976;9.834;2023-08-08T06:06:24;7.90;;;3.60;;
75823;SDS011;64457;51.976;9.834;2023-08-08T06:08:53;13.07;;;3.93;;
75823;SDS011;64457;51.976;9.834;2023-08-08T06:11:21;7.50;;;3.43;;
75823;SDS011;64457;51.976;9.834;2023-08-08T06:13:49;12.43;;;3.10;;
75823;SDS011;64457;51.976;9.834;2023-08-08T06:16:24;9.87;;;3.43;;
75823;SDS011;64457;51.976;9.834;2023-08-08T06:18:52;6.90;;;3.07;;
75823;SDS011;64457;51.976;9.834;2023-08-08T06:21:21;8.60;;;3.67;;
75823;SDS011;64457;51.976;9.834;2023-08-08T06:23:51;9.00;;;3.70;;
75823;SDS011;64457;51.976;9.834;2023-08-08T06:26:21;8.77;;;3.93;;
75823;SDS011;64457;51.976;9.834;2023-08-08T06:28:49;7.60;;;3.60;;
75823;SDS011;64457;51.976;9.834;2023-08-08T06:31:18;10.40;;;3.80;;
75823;SDS011;64457;51.976;9.834;2023-08-08T06:33:49;9.87;;;3.80;;
75823;SDS011;64457;51.976;9.834;2023-08-08T06:36:20;12.23;;;3.97;;
75823;SDS011;64457;51.976;9.834;2023-08-08T06:38:53;14.57;;;4.20;;
75823;SDS011;64457;51.976;9.834;2023-08-08T06:41:20;9.33;;;3.70;;
75823;SDS011;64457;51.976;9.834;2023-08-08T06:43:48;13.17;;;4.60;;
75823;SDS011;64457;51.976;9.834;2023-08-08T06:46:16;9.23;;;4.17;;
75823;SDS011;64457;51.976;9.834;2023-08-08T06:48:49;10.17;;;4.43;;
75823;SDS011;64457;51.976;9.834;2023-08-08T06:51:25;8.53;;;4.40;;
75823;SDS011;64457;51.976;9.834;2023-08-08T06:53:55;10.83;;;4.47;;
75823;SDS011;64457;51.976;9.834;2023-08-08T06:56:23;13.30;;;4.33;;
75823;SDS011;64457;51.976;9.834;2023-08-08T06:58:52;11.73;;;4.67;;
75823;SDS011;64457;51.976;9.834;2023-08-08T07:01:20;10.57;;;5.00;;
75823;SDS011;64457;51.976;9.834;2023-08-08T07:03:52;7.87;;;4.10;;
75823;SDS011;64457;51.976;9.834;2023-08-08T07:06:20;9.47;;;4.67;;
75823;SDS011;64457;51.976;9.834;2023-08-08T07:08:49;9.10;;;4.30;;
75823;SDS011;64457;51.976;9.834;2023-08-08T07:11:17;9.80;;;4.40;;
75823;SDS011;64457;51.976;9.834;2023-08-08T07:13:47;9.77;;;3.80;;
75823;SDS011;64457;51.976;9.834;2023-08-08T07:16:17;9.00;;;3.80;;
75823;SDS011;64457;51.976;9.834;2023-08-08T07:18:46;11.50;;;4.20;;
75823;SDS011;64457;51.976;9.834;2023-08-08T07:21:16;10.20;;;4.00;;
75823;SDS011;64457;51.976;9.834;2023-08-08T07:23:44;8.33;;;3.53;;
75823;SDS011;64457;51.976;9.834;2023-08-08T07:26:11;9.50;;;4.33;;
75823;SDS011;64457;51.976;9.834;2023-08-08T07:28:40;10.67;;;3.80;;
75823;SDS011;64457;51.976;9.834;2023-08-08T07:31:08;9.03;;;3.60;;
75823;SDS011;64457;51.976;9.834;2023-08-08T07:33:36;11.10;;;3.70;;
75823;SDS011;64457;51.976;9.834;2023-08-08T07:36:07;9.30;;;4.37;;
75823;SDS011;64457;51.976;9.834;2023-08-08T07:38:35;7.53;;;3.67;;
75823;SDS011;64457;51.976;9.834;2023-08-08T07:41:03;9.57;;;3.60;;
75823;SDS011;64457;51.976;9.834;2023-08-08T07:43:32;9.53;;;3.90;;
75823;SDS011;64457;51.976;9.834;2023-08-08T07:46:00;11.87;;;3.47;;
75823;SDS011;64457;51.976;9.834;2023-08-08T07:48:28;10.27;;;3.17;;
75823;SDS011;64457;51.976;9.834;2023-08-08T07:50:58;10.97;;;2.90;;
75823;SDS011;64457;51.976;9.834;2023-08-08T07:53:26;8.07;;;3.00;;
75823;SDS011;64457;51.976;9.834;2023-08-08T07:55:58;9.57;;;2.60;;
75823;SDS011;64457;51.976;9.834;2023-08-08T07:58:26;7.03;;;2.47;;
75823;SDS011;64457;51.976;9.834;2023-08-08T08:00:53;12.47;;;3.53;;
75823;SDS011;64457;51.976;9.834;2023-08-08T08:03:23;9.90;;;3.07;;
75823;SDS011;64457;51.976;9.834;2023-08-08T08:05:52;12.00;;;3.13;;
75823;SDS011;64457;51.976;9.834;2023-08-08T08:08:21;8.80;;;2.53;;
75823;SDS011;64457;51.976;9.834;2023-08-08T08:10:51;6.53;;;2.73;;
75823;SDS011;64457;51.976;9.834;2023-08-08T08:13:20;7.63;;;2.67;;
75823;SDS011;64457;51.976;9.834;2023-08-08T08:15:48;8.00;;;3.10;;
75823;SDS011;64457;51.976;9.834;2023-08-08T08:18:17;6.80;;;2.77;;
75823;SDS011;64457;51.976;9.834;2023-08-08T08:20:47;7.60;;;2.70;;
75823;SDS011;64457;51.976;9.834;2023-08-08T08:23:15;9.50;;;2.90;;
75823;SDS011;64457;51.976;9.834;2023-08-08T08:25:46;8.27;;;2.50;;
75823;SDS011;64457;51.976;9.834;2023-08-08T08:28:15;8.63;;;3.10;;
75823;SDS011;64457;51.976;9.834;2023-08-08T08:30:45;7.40;;;2.60;;
75823;SDS011;64457;51.976;9.834;2023-08-08T08:33:13;9.20;;;3.00;;
75823;SDS011;64457;51.976;9.834;2023-08-08T08:35:45;7.83;;;2.90;;
75823;SDS011;64457;51.976;9.834;2023-08-08T08:38:13;8.27;;;2.67;;
75823;SDS011;64457;51.976;9.834;2023-08-08T08:40:41;11.53;;;3.47;;
75823;SDS011;64457;51.976;9.834;2023-08-08T08:43:13;8.37;;;3.30;;
75823;SDS011;64457;51.976;9.834;2023-08-08T08:45:48;13.90;;;3.97;;
75823;SDS011;64457;51.976;9.834;2023-08-08T08:48:20;8.40;;;3.50;;
75823;SDS011;64457;51.976;9.834;2023-08-08T08:50:49;10.37;;;3.40;;
75823;SDS011;64457;51.976;9.834;2023-08-08T08:53:20;14.57;;;3.80;;
75823;SDS011;64457;51.976;9.834;2023-08-08T08:55:51;13.77;;;3.70;;
75823;SDS011;64457;51.976;9.834;2023-08-08T08:58:20;7.80;;;3.50;;
75823;SDS011;64457;51.976;9.834;2023-08-08T09:00:51;9.87;;;3.60;;
75823;SDS011;64457;51.976;9.834;2023-08-08T09:03:20;13.27;;;3.70;;
75823;SDS011;64457;51.976;9.834;2023-08-08T09:05:48;11.90;;;5.07;;
75823;SDS011;64457;51.976;9.834;2023-08-08T09:08:16;9.17;;;4.00;;
75823;SDS011;64457;51.976;9.834;2023-08-08T09:10:46;11.40;;;3.50;;
75823;SDS011;64457;51.976;9.834;2023-08-08T09:13:13;8.17;;;3.97;;
75823;SDS011;64457;51.976;9.834;2023-08-08T09:15:41;11.50;;;3.30;;
75823;SDS011;64457;51.976;9.834;2023-08-08T09:18:11;10.07;;;3.33;;
75823;SDS011;64457;51.976;9.834;2023-08-08T09:20:39;11.90;;;4.73;;
75823;SDS011;64457;51.976;9.834;2023-08-08T09:23:09;12.97;;;3.97;;
75823;SDS011;64457;51.976;9.834;2023-08-08T09:25:36;8.20;;;3.77;;
75823;SDS011;64457;51.976;9.834;2023-08-08T09:28:04;8.40;;;4.03;;
75823;SDS011;64457;51.976;9.834;2023-08-08T09:30:33;10.83;;;4.70;;
75823;SDS011;64457;51.976;9.834;2023-08-08T09:33:02;10.90;;;4.30;;
75823;SDS011;64457;51.976;9.834;2023-08-08T09:35:32;12.07;;;4.87;;
75823;SDS011;64457;51.976;9.834;2023-08-08T09:38:00;14.00;;;5.07;;
75823;SDS011;64457;51.976;9.834;2023-08-08T09:40:27;8.00;;;3.80;;
75823;SDS011;64457;51.976;9.834;2023-08-08T09:42:56;10.43;;;4.13;;
75823;SDS011;64457;51.976;9.834;2023-08-08T09:45:25;9.40;;;3.60;;
75823;SDS011;64457;51.976;9.834;2023-08-08T09:47:52;7.17;;;3.17;;
75823;SDS011;64457;51.976;9.834;2023-08-08T09:50:20;11.73;;;4.27;;
75823;SDS011;64457;51.976;9.834;2023-08-08T09:52:51;12.53;;;4.37;;
75823;SDS011;64457;51.976;9.834;2023-08-08T09:55:20;8.43;;;3.57;;
75823;SDS011;64457;51.976;9.834;2023-08-08T09:57:50;10.17;;;3.87;;
75823;SDS011;64457;51.976;9.834;2023-08-08T10:00:19;11.67;;;4.17;;
75823;SDS011;64457;51.976;9.834;2023-08-08T10:02:47;11.27;;;4.00;;
75823;SDS011;64457;51.976;9.834;2023-08-08T10:05:15;11.90;;;4.60;;
75823;SDS011;64457;51.976;9.834;2023-08-08T10:07:43;16.93;;;4.60;;
75823;SDS011;64457;51.976;9.834;2023-08-08T10:10:13;11.60;;;4.67;;
75823;SDS011;64457;51.976;9.834;2023-08-08T10:12:44;11.40;;;5.23;;
75823;SDS011;64457;51.976;9.834;2023-08-08T10:15:14;13.83;;;4.43;;
75823;SDS011;64457;51.976;9.834;2023-08-08T10:17:42;9.33;;;3.90;;
75823;SDS011;64457;51.976;9.834;2023-08-08T10:20:10;9.20;;;3.70;;
75823;SDS011;64457;51.976;9.834;2023-08-08T10:22:41;12.30;;;4.37;;
75823;SDS011;64457;51.976;9.834;2023-08-08T10:25:19;10.10;;;4.40;;
75823;SDS011;64457;51.976;9.834;2023-08-08T10:28:01;8.77;;;3.70;;
75823;SDS011;64457;51.976;9.834;2023-08-08T10:30:42;9.43;;;3.73;;
75823;SDS011;64457;51.976;9.834;2023-08-08T10:33:15;8.40;;;3.70;;
75823;SDS011;64457;51.976;9.834;2023-08-08T10:35:58;9.23;;;3.67;;
75823;SDS011;64457;51.976;9.834;2023-08-08T10:38:38;15.23;;;3.73;;
75823;SDS011;64457;51.976;9.834;2023-08-08T10:41:11;9.97;;;3.63;;
75823;SDS011;64457;51.976;9.834;2023-08-08T10:43:47;9.37;;;3.70;;
75823;SDS011;64457;51.976;9.834;2023-08-08T10:46:23;8.33;;;3.63;;
75823;SDS011;64457;51.976;9.834;2023-08-08T10:48:56;8.33;;;3.70;;
75823;SDS011;64457;51.976;9.834;2023-08-08T10:51:37;9.93;;;3.60;;
75823;SDS011;64457;51.976;9.834;2023-08-08T10:54:12;8.57;;;3.50;;
75823;SDS011;64457;51.976;9.834;2023-08-08T10:56:48;11.20;;;3.03;;
75823;SDS011;64457;51.976;9.834;2023-08-08T10:59:17;7.97;;;3.00;;
75823;SDS011;64457;51.976;9.834;2023-08-08T11:01:47;11.10;;;3.13;;
75823;SDS011;64457;51.976;9.834;2023-08-08T11:04:17;7.40;;;3.00;;
75823;SDS011;64457;51.976;9.834;2023-08-08T11:06:47;7.77;;;3.10;;
75823;SDS011;64457;51.976;9.834;2023-08-08T11:09:15;10.70;;;3.20;;
75823;SDS011;64457;51.976;9.834;2023-08-08T11:11:43;8.07;;;2.90;;
75823;SDS011;64457;51.976;9.834;2023-08-08T11:14:14;6.10;;;2.80;;
75823;SDS011;64457;51.976;9.834;2023-08-08T11:16:43;7.20;;;2.70;;
75823;SDS011;64457;51.976;9.834;2023-08-08T11:19:13;5.87;;;2.40;;
75823;SDS011;64457;51.976;9.834;2023-08-08T11:21:42;7.20;;;2.20;;
75823;SDS011;64457;51.976;9.834;2023-08-08T11:24:12;7.93;;;2.60;;
75823;SDS011;64457;51.976;9.834;2023-08-08T11:26:44;8.73;;;2.93;;
75823;SDS011;64457;51.976;9.834;2023-08-08T11:29:14;8.17;;;3.10;;
75823;SDS011;64457;51.976;9.834;2023-08-08T11:31:42;10.03;;;3.10;;
75823;SDS011;64457;51.976;9.834;2023-08-08T11:34:09;7.00;;;2.70;;
75823;SDS011;64457;51.976;9.834;2023-08-08T11:36:38;7.80;;;2.80;;
75823;SDS011;64457;51.976;9.834;2023-08-08T11:39:07;11.17;;;3.13;;
75823;SDS011;64457;51.976;9.834;2023-08-08T11:41:35;10.27;;;3.20;;
75823;SDS011;64457;51.976;9.834;2023-08-08T11:44:06;6.60;;;2.83;;
75823;SDS011;64457;51.976;9.834;2023-08-08T11:46:42;7.40;;;2.87;;
75823;SDS011;64457;51.976;9.834;2023-08-08T11:49:14;10.90;;;3.20;;
75823;SDS011;64457;51.976;9.834;2023-08-08T11:51:44;7.93;;;2.83;;
75823;SDS011;64457;51.976;9.834;2023-08-08T11:54:12;6.93;;;2.80;;
75823;SDS011;64457;51.976;9.834;2023-08-08T11:56:41;6.30;;;2.47;;
75823;SDS011;64457;51.976;9.834;2023-08-08T11:59:10;5.80;;;2.30;;
75823;SDS011;64457;51.976;9.834;2023-08-08T12:01:41;5.33;;;1.90;;
75823;SDS011;64457;51.976;9.834;2023-08-08T12:04:09;11.23;;;2.20;;
75823;SDS011;64457;51.976;9.834;2023-08-08T12:06:37;6.50;;;2.37;;
75823;SDS011;64457;51.976;9.834;2023-08-08T12:09:06;6.27;;;1.90;;
75823;SDS011;64457;51.976;9.834;2023-08-08T12:11:34;7.67;;;2.03;;
75823;SDS011;64457;51.976;9.834;2023-08-08T12:14:03;6.40;;;2.17;;
75823;SDS011;64457;51.976;9.834;2023-08-08T12:16:30;6.63;;;2.50;;
75823;SDS011;64457;51.976;9.834;2023-08-08T12:19:02;7.90;;;2.47;;
75823;SDS011;64457;51.976;9.834;2023-08-08T12:21:34;6.77;;;2.73;;
75823;SDS011;64457;51.976;9.834;2023-08-08T12:24:02;5.60;;;2.27;;
75823;SDS011;64457;51.976;9.834;2023-08-08T12:26:30;7.03;;;2.53;;
75823;SDS011;64457;51.976;9.834;2023-08-08T12:29:00;7.50;;;2.30;;
75823;SDS011;64457;51.976;9.834;2023-08-08T12:31:29;6.43;;;2.20;;
75823;SDS011;64457;51.976;9.834;2023-08-08T12:33:57;8.27;;;2.47;;
75823;SDS011;64457;51.976;9.834;2023-08-08T12:36:26;5.80;;;2.17;;
75823;SDS011;64457;51.976;9.834;2023-08-08T12:38:53;6.00;;;1.90;;
75823;SDS011;64457;51.976;9.834;2023-08-08T12:41:22;8.50;;;2.17;;
75823;SDS011;64457;51.976;9.834;2023-08-08T12:43:51;9.00;;;2.13;;
75823;SDS011;64457;51.976;9.834;2023-08-08T12:46:21;7.50;;;2.10;;
75823;SDS011;64457;51.976;9.834;2023-08-08T12:48:48;6.63;;;1.90;;
75823;SDS011;64457;51.976;9.834;2023-08-08T12:51:16;5.00;;;1.90;;
75823;SDS011;64457;51.976;9.834;2023-08-08T12:53:45;10.63;;;2.40;;
75823;SDS011;64457;51.976;9.834;2023-08-08T12:56:13;5.63;;;1.70;;
75823;SDS011;64457;51.976;9.834;2023-08-08T12:58:41;6.20;;;1.60;;
75823;SDS011;64457;51.976;9.834;2023-08-08T13:01:09;6.13;;;1.73;;
75823;SDS011;64457;51.976;9.834;2023-08-08T13:03:37;6.70;;;1.60;;
75823;SDS011;64457;51.976;9.834;2023-08-08T13:06:05;4.77;;;1.50;;
75823;SDS011;64457;51.976;9.834;2023-08-08T13:08:34;5.10;;;1.47;;
75823;SDS011;64457;51.976;9.834;2023-08-08T13:11:03;7.07;;;1.90;;
75823;SDS011;64457;51.976;9.834;2023-08-08T13:13:31;9.70;;;1.60;;
75823;SDS011;64457;51.976;9.834;2023-08-08T13:16:04;5.20;;;1.40;;
75823;SDS011;64457;51.976;9.834;2023-08-08T13:18:31;6.57;;;1.50;;
75823;SDS011;64457;51.976;9.834;2023-08-08T13:21:00;7.10;;;1.40;;
75823;SDS011;64457;51.976;9.834;2023-08-08T13:23:30;6.10;;;1.40;;
75823;SDS011;64457;51.976;9.834;2023-08-08T13:25:59;5.00;;;1.60;;
75823;SDS011;64457;51.976;9.834;2023-08-08T13:28:30;6.30;;;1.30;;
75823;SDS011;64457;51.976;9.834;2023-08-08T13:30:58;5.37;;;1.43;;
75823;SDS011;64457;51.976;9.834;2023-08-08T13:33:27;5.63;;;1.73;;
75823;SDS011;64457;51.976;9.834;2023-08-08T13:35:55;4.67;;;1.23;;
75823;SDS011;64457;51.976;9.834;2023-08-08T13:38:22;4.67;;;1.13;;
75823;SDS011;64457;51.976;9.834;2023-08-08T13:40:53;7.70;;;1.47;;
75823;SDS011;64457;51.976;9.834;2023-08-08T13:43:21;5.20;;;1.10;;
75823;SDS011;64457;51.976;9.834;2023-08-08T13:45:52;5.03;;;1.23;;
75823;SDS011;64457;51.976;9.834;2023-08-08T13:48:20;4.13;;;1.20;;
75823;SDS011;64457;51.976;9.834;2023-08-08T13:50:48;4.67;;;1.23;;
75823;SDS011;64457;51.976;9.834;2023-08-08T13:53:18;9.83;;;1.43;;
75823;SDS011;64457;51.976;9.834;2023-08-08T13:55:47;6.80;;;1.50;;
75823;SDS011;64457;51.976;9.834;2023-08-08T13:58:16;6.53;;;1.27;;
75823;SDS011;64457;51.976;9.834;2023-08-08T14:00:47;7.10;;;1.40;;
75823;SDS011;64457;51.976;9.834;2023-08-08T14:03:18;4.90;;;1.40;;
75823;SDS011;64457;51.976;9.834;2023-08-08T14:05:47;4.93;;;1.37;;
75823;SDS011;64457;51.976;9.834;2023-08-08T14:08:15;5.40;;;1.63;;
75823;SDS011;64457;51.976;9.834;2023-08-08T14:10:45;7.10;;;1.60;;
75823;SDS011;64457;51.976;9.834;2023-08-08T14:13:14;5.17;;;1.53;;
75823;SDS011;64457;51.976;9.834;2023-08-08T14:15:46;8.27;;;1.60;;
75823;SDS011;64457;51.976;9.834;2023-08-08T14:18:18;5.80;;;1.70;;
75823;SDS011;64457;51.976;9.834;2023-08-08T14:20:47;6.00;;;1.80;;
75823;SDS011;64457;51.976;9.834;2023-08-08T14:23:15;9.30;;;1.70;;
75823;SDS011;64457;51.976;9.834;2023-08-08T14:25:43;5.50;;;1.50;;
75823;SDS011;64457;51.976;9.834;2023-08-08T14:28:10;8.17;;;2.13;;
75823;SDS011;64457;51.976;9.834;2023-08-08T14:30:38;5.77;;;1.50;;
75823;SDS011;64457;51.976;9.834;2023-08-08T14:33:12;5.67;;;1.90;;
75823;SDS011;64457;51.976;9.834;2023-08-08T14:35:43;5.53;;;1.60;;
75823;SDS011;64457;51.976;9.834;2023-08-08T14:38:11;5.90;;;1.50;;
75823;SDS011;64457;51.976;9.834;2023-08-08T14:40:39;6.73;;;2.10;;
75823;SDS011;64457;51.976;9.834;2023-08-08T14:43:08;7.37;;;2.10;;
75823;SDS011;64457;51.976;9.834;2023-08-08T14:45:37;7.60;;;1.83;;
75823;SDS011;64457;51.976;9.834;2023-08-08T14:48:06;7.70;;;2.00;;
75823;SDS011;64457;51.976;9.834;2023-08-08T14:50:34;6.17;;;1.63;;
75823;SDS011;64457;51.976;9.834;2023-08-08T14:53:05;6.80;;;1.90;;
75823;SDS011;64457;51.976;9.834;2023-08-08T14:55:34;5.70;;;1.90;;